Time;durP1;ratioP1;P1;durP2;ratioP2;P2;SDS_P1;SDS_P2;PMS_P1;PMS_P2;Temp;Humidity;BMP_temperature;BMP_pressure;BME280_temperature;BME280_humidity;BME280_pressure;Samples;Min_cycle;Max_cycle;Signal;HPM_P1;HPM_P2
2021/05/28 00:00:59;;;;;;;5.63;3.80;;;614.50;1510.40;;;;;;4849418;29;20034;-85
2021/05/28 00:03:25;;;;;;;5.95;3.55;;;614.40;1510.40;;;;;;4848429;29;20081;-84
2021/05/28 00:05:51;;;;;;;6.78;4.55;;;614.40;1510.40;;;;;;4864793;29;20045;-84
2021/05/28 00:08:30;;;;;;;7.05;3.85;;;614.40;1510.40;;;;;;4871190;29;20033;-82
2021/05/28 00:10:56;;;;;;;6.10;4.10;;;614.40;1510.40;;;;;;4869080;29;20044;-82
2021/05/28 00:13:22;;;;;;;7.60;4.00;;;614.40;1510.40;;;;;;4866750;29;20097;-83
2021/05/28 00:15:48;;;;;;;7.00;4.63;;;614.40;1510.40;;;;;;4866454;29;20375;-82
2021/05/28 00:18:14;;;;;;;5.75;4.50;;;614.40;1510.40;;;;;;4866418;29;20044;-82
2021/05/28 00:20:40;;;;;;;7.00;4.03;;;614.40;1510.40;;;;;;4882918;29;20029;-83
2021/05/28 00:23:07;;;;;;;7.90;4.43;;;614.40;1510.40;;;;;;4868570;29;20089;-83
2021/05/28 00:25:33;;;;;;;6.63;3.92;;;614.40;1510.40;;;;;;4875660;29;20033;-84
2021/05/28 00:27:58;;;;;;;5.97;4.07;;;614.40;1510.40;;;;;;4874390;29;20044;-83
2021/05/28 00:30:24;;;;;;;4.85;3.88;;;614.40;1510.40;;;;;;4868199;29;20040;-83
2021/05/28 00:32:50;;;;;;;6.93;4.28;;;589.70;1510.40;;;;;;4866879;29;20045;-83
2021/05/28 00:35:17;;;;;;;7.65;4.43;;;589.70;1536.00;;;;;;4867295;29;20037;-83
2021/05/28 00:37:43;;;;;;;6.35;5.07;;;589.70;1510.40;;;;;;4883324;29;20033;-83
2021/05/28 00:40:10;;;;;;;6.28;4.10;;;589.70;1510.40;;;;;;4866813;29;20045;-83
2021/05/28 00:42:36;;;;;;;7.40;4.13;;;589.70;1510.40;;;;;;4867075;29;20055;-82
2021/05/28 00:45:03;;;;;;;6.93;3.20;;;589.70;1510.40;;;;;;4868039;29;20040;-84
2021/05/28 00:47:29;;;;;;;5.93;4.05;;;589.70;1510.40;;;;;;4866935;29;20089;-85
2021/05/28 00:49:55;;;;;;;7.50;4.38;;;589.60;1510.40;;;;;;4871004;29;20037;-82
2021/05/28 00:52:20;;;;;;;8.85;4.90;;;589.60;1510.40;;;;;;4866539;29;20146;-82
2021/05/28 00:54:46;;;;;;;7.05;4.32;;;589.60;1510.40;;;;;;4867847;29;20128;-84
2021/05/28 00:57:12;;;;;;;6.75;4.15;;;589.60;1510.40;;;;;;4866248;29;20048;-86
2021/05/28 00:59:38;;;;;;;6.75;4.63;;;589.60;1536.00;;;;;;4865981;29;20040;-85
2021/05/28 01:02:05;;;;;;;7.82;4.00;;;589.60;1510.40;;;;;;4865983;29;20402;-85
2021/05/28 01:04:31;;;;;;;6.63;4.63;;;589.60;1510.40;;;;;;4866002;29;20037;-85
2021/05/28 01:06:57;;;;;;;5.32;3.33;;;589.60;1510.40;;;;;;4865861;29;20065;-85
2021/05/28 01:09:23;;;;;;;5.30;3.90;;;589.50;1510.40;;;;;;4866183;29;20072;-85
2021/05/28 01:11:48;;;;;;;7.25;4.20;;;589.60;1510.40;;;;;;4865968;29;20045;-85
2021/05/28 01:14:14;;;;;;;6.07;3.63;;;589.50;1510.40;;;;;;4865763;29;20041;-85
2021/05/28 01:16:40;;;;;;;5.80;4.40;;;589.60;1510.40;;;;;;4865650;29;20041;-86
2021/05/28 01:19:06;;;;;;;6.97;3.83;;;589.50;1510.40;;;;;;4882997;29;20061;-84
2021/05/28 01:21:32;;;;;;;7.22;4.43;;;589.60;1510.40;;;;;;4866463;29;20089;-85
2021/05/28 01:23:58;;;;;;;8.07;4.25;;;589.50;1510.40;;;;;;4866697;29;20059;-83
2021/05/28 01:26:24;;;;;;;6.10;4.05;;;589.60;1510.40;;;;;;4866275;29;20481;-85
2021/05/28 01:28:50;;;;;;;6.63;3.72;;;589.60;1510.40;;;;;;4866192;29;20041;-84
2021/05/28 01:36:21;;;;;;;5.10;3.40;;;589.60;1510.40;;;;;;4890930;29;20064;-82
2021/05/28 01:38:59;;;;;;;5.57;4.43;;;589.60;1510.40;;;;;;4873513;29;20037;-83
2021/05/28 01:41:30;;;;;;;3.92;2.95;;;589.60;1510.40;;;;;;4871590;29;20063;-85
2021/05/28 01:43:56;;;;;;;5.45;4.45;;;589.60;1510.40;;;;;;4871656;29;20044;-85
2021/05/28 01:46:23;;;;;;;5.45;4.10;;;589.60;1510.40;;;;;;4883254;29;20044;-84
2021/05/28 01:48:49;;;;;;;4.88;3.55;;;589.60;1510.40;;;;;;4885033;29;20043;-84
2021/05/28 01:51:15;;;;;;;5.70;4.13;;;589.60;1510.40;;;;;;4887730;29;20041;-84
2021/05/28 01:53:42;;;;;;;5.93;3.78;;;589.60;1510.40;;;;;;4886987;29;20078;-83
2021/05/28 01:56:08;;;;;;;5.97;3.97;;;589.70;1510.40;;;;;;4865158;29;20029;-83
2021/05/28 01:58:33;;;;;;;4.32;3.53;;;589.70;1510.40;;;;;;4862122;29;20051;-83
2021/05/28 02:00:59;;;;;;;6.00;4.70;;;589.70;1510.40;;;;;;4846419;29;20042;-83
2021/05/28 02:03:26;;;;;;;4.93;3.55;;;589.70;1510.40;;;;;;4846392;29;20125;-83
2021/05/28 02:05:52;;;;;;;5.15;4.30;;;589.70;1510.40;;;;;;4845843;29;20569;-83
2021/05/28 02:08:17;;;;;;;5.18;3.80;;;589.70;1510.40;;;;;;4846183;29;20575;-83
2021/05/28 02:10:44;;;;;;;5.15;3.70;;;589.70;1510.40;;;;;;4846051;29;20076;-84
2021/05/28 02:13:10;;;;;;;7.05;4.90;;;589.70;1484.80;;;;;;4846051;29;20196;-83
2021/05/28 02:15:36;;;;;;;5.47;4.18;;;589.70;1510.40;;;;;;4845971;29;20037;-83
2021/05/28 02:18:02;;;;;;;6.00;4.18;;;589.70;1484.80;;;;;;4845740;29;20048;-83
2021/05/28 02:20:28;;;;;;;5.07;3.72;;;589.70;1484.80;;;;;;4862472;29;20395;-84
2021/05/28 02:22:54;;;;;;;5.35;4.00;;;589.70;1484.80;;;;;;4846086;29;20410;-82
2021/05/28 02:25:19;;;;;;;6.30;4.47;;;589.70;1484.80;;;;;;4845731;29;20125;-83
2021/05/28 02:27:46;;;;;;;6.25;3.60;;;589.70;1484.80;;;;;;4845901;29;20049;-84
2021/05/28 02:30:13;;;;;;;4.47;3.50;;;589.70;1484.80;;;;;;4846127;29;20082;-84
2021/05/28 02:32:39;;;;;;;6.40;4.65;;;589.70;1484.80;;;;;;4846232;29;20048;-84
2021/05/28 02:35:08;;;;;;;6.45;4.28;;;589.70;1484.80;;;;;;4862941;29;20057;-84
2021/05/28 02:37:34;;;;;;;5.13;3.88;;;589.70;1484.80;;;;;;4863460;29;20038;-84
2021/05/28 02:40:00;;;;;;;7.45;4.72;;;614.40;1484.80;;;;;;4866703;29;20105;-84
2021/05/28 02:42:26;;;;;;;6.78;4.10;;;589.70;1484.80;;;;;;4855893;29;20041;-83
2021/05/28 02:44:53;;;;;;;5.45;3.42;;;589.70;1484.80;;;;;;4845740;29;20061;-83
2021/05/28 02:47:21;;;;;;;4.97;3.65;;;614.40;1484.80;;;;;;4854281;29;20042;-85
2021/05/28 02:49:47;;;;;;;6.60;4.07;;;614.40;1459.20;;;;;;4864809;29;20049;-83
2021/05/28 02:52:14;;;;;;;6.95;3.92;;;614.40;1484.80;;;;;;4854216;29;20510;-83
2021/05/28 02:54:40;;;;;;;6.25;3.83;;;614.40;1484.80;;;;;;4853849;29;20057;-82
2021/05/28 02:57:06;;;;;;;4.57;3.60;;;614.40;1484.80;;;;;;4850443;29;20501;-83
2021/05/28 02:59:32;;;;;;;5.75;3.70;;;614.40;1484.80;;;;;;4845064;29;20038;-83
2021/05/28 03:01:57;;;;;;;6.95;4.30;;;589.70;1484.80;;;;;;4845146;29;20044;-83
2021/05/28 03:04:23;;;;;;;4.50;3.85;;;589.70;1484.80;;;;;;4844885;29;20443;-83
2021/05/28 03:06:49;;;;;;;5.22;3.85;;;589.70;1510.40;;;;;;4845015;29;20525;-83
2021/05/28 03:09:14;;;;;;;5.53;4.32;;;589.70;1484.80;;;;;;4844963;29;20133;-83
2021/05/28 03:11:40;;;;;;;5.65;4.15;;;589.70;1510.40;;;;;;4844839;29;20069;-83
2021/05/28 03:14:06;;;;;;;7.13;4.63;;;589.70;1484.80;;;;;;4845024;29;20044;-82
2021/05/28 03:16:33;;;;;;;5.63;4.30;;;589.70;1510.40;;;;;;4845139;29;20045;-83
2021/05/28 03:19:05;;;;;;;4.30;3.80;;;589.70;1510.40;;;;;;4846255;29;20087;-83
2021/05/28 03:24:01;;;;;;;4.80;4.07;;;589.70;1510.40;;;;;;4868241;29;20029;-83
2021/05/28 03:26:28;;;;;;;5.13;4.03;;;589.70;1510.40;;;;;;4850169;29;20041;-83
2021/05/28 03:28:55;;;;;;;4.93;3.55;;;589.70;1484.80;;;;;;4844426;29;20038;-83
2021/05/28 03:31:22;;;;;;;6.32;3.90;;;589.70;1510.40;;;;;;4844719;29;20116;-83
2021/05/28 03:33:49;;;;;;;5.88;4.50;;;589.70;1484.80;;;;;;4844779;29;20148;-83
2021/05/28 03:36:16;;;;;;;8.18;4.88;;;589.70;1484.80;;;;;;4844953;29;20045;-84
2021/05/28 03:38:43;;;;;;;7.05;4.20;;;589.70;1484.80;;;;;;4844865;29;20090;-84
2021/05/28 03:41:09;;;;;;;5.47;4.30;;;589.70;1484.80;;;;;;4861494;29;20124;-84
2021/05/28 03:43:35;;;;;;;5.47;4.38;;;589.70;1484.80;;;;;;4844934;29;20057;-83
2021/05/28 03:46:02;;;;;;;5.57;4.45;;;589.70;1484.80;;;;;;4844932;29;20478;-83
2021/05/28 03:48:28;;;;;;;4.70;3.47;;;614.40;1484.80;;;;;;4844901;29;20045;-83
2021/05/28 03:50:54;;;;;;;6.78;4.45;;;614.40;1484.80;;;;;;4844811;29;20092;-84
2021/05/28 03:53:20;;;;;;;5.07;4.38;;;589.70;1484.80;;;;;;4844858;29;20084;-83
2021/05/28 03:55:46;;;;;;;4.68;3.55;;;589.70;1484.80;;;;;;4844841;29;20033;-83
2021/05/28 03:58:12;;;;;;;5.05;4.07;;;589.70;1484.80;;;;;;4844912;29;20037;-84
2021/05/28 04:00:38;;;;;;;4.85;3.90;;;589.70;1484.80;;;;;;4861174;29;20382;-83
2021/05/28 04:03:04;;;;;;;4.30;3.75;;;589.70;1484.80;;;;;;4847070;29;20048;-85
2021/05/28 04:05:29;;;;;;;5.25;3.97;;;589.60;1484.80;;;;;;4855489;29;20037;-84
2021/05/28 04:07:55;;;;;;;5.80;4.13;;;589.60;1484.80;;;;;;4862341;29;20063;-84
2021/05/28 04:10:21;;;;;;;5.47;4.25;;;589.60;1484.80;;;;;;4863136;29;20120;-84
2021/05/28 04:12:46;;;;;;;5.30;4.20;;;589.60;1484.80;;;;;;4862630;29;20041;-84
2021/05/28 04:15:13;;;;;;;5.43;4.20;;;589.60;1510.40;;;;;;4847836;29;20045;-84
2021/05/28 04:17:38;;;;;;;6.30;4.00;;;589.60;1484.80;;;;;;4863125;29;20033;-84
2021/05/28 04:20:05;;;;;;;5.95;3.83;;;589.50;1510.40;;;;;;4863022;29;20083;-84
2021/05/28 04:22:31;;;;;;;5.53;4.95;;;589.50;1510.40;;;;;;4862394;29;20100;-84
2021/05/28 04:24:57;;;;;;;5.07;4.07;;;589.50;1484.80;;;;;;4862887;29;20498;-84
2021/05/28 04:27:23;;;;;;;4.38;3.97;;;589.50;1510.40;;;;;;4863108;29;20397;-84
2021/05/28 04:29:48;;;;;;;5.38;4.80;;;589.50;1484.80;;;;;;4865372;29;20462;-84
2021/05/28 04:32:16;;;;;;;5.63;5.05;;;589.50;1484.80;;;;;;4866727;29;20052;-83
2021/05/28 04:34:42;;;;;;;6.22;4.97;;;589.50;1484.80;;;;;;4874345;29;20049;-84
2021/05/28 04:37:07;;;;;;;4.90;3.90;;;589.40;1510.40;;;;;;4874830;29;20397;-84
2021/05/28 04:39:33;;;;;;;5.30;4.80;;;589.40;1510.40;;;;;;4872467;29;20040;-84
2021/05/28 04:41:59;;;;;;;5.38;4.55;;;589.40;1510.40;;;;;;4861174;24;20410;-85
2021/05/28 04:44:25;;;;;;;5.32;4.82;;;589.40;1484.80;;;;;;4849601;29;20132;-84
2021/05/28 04:46:51;;;;;;;5.20;3.95;;;589.40;1510.40;;;;;;4848035;29;20034;-84
2021/05/28 04:49:17;;;;;;;5.22;4.70;;;589.40;1510.40;;;;;;4847636;29;20037;-85
2021/05/28 04:51:42;;;;;;;5.68;4.53;;;589.30;1510.40;;;;;;4847686;29;20435;-83
2021/05/28 04:54:08;;;;;;;7.18;4.82;;;589.30;1510.40;;;;;;4863108;29;20074;-84
2021/05/28 04:56:34;;;;;;;6.70;5.35;;;589.30;1510.40;;;;;;4847679;29;20056;-83
2021/05/28 04:59:00;;;;;;;6.65;4.63;;;589.30;1510.40;;;;;;4847479;29;20042;-83
2021/05/28 05:01:25;;;;;;;6.03;4.95;;;589.30;1510.40;;;;;;4847319;29;20037;-83
2021/05/28 05:03:51;;;;;;;6.03;4.65;;;589.30;1510.40;;;;;;4848795;29;20041;-83
2021/05/28 05:06:17;;;;;;;6.47;4.75;;;589.30;1510.40;;;;;;4847571;29;20038;-84
2021/05/28 05:08:43;;;;;;;5.70;4.72;;;589.40;1510.40;;;;;;4847605;29;20030;-87
2021/05/28 05:11:09;;;;;;;7.22;4.72;;;589.30;1510.40;;;;;;4847848;29;20414;-86
2021/05/28 05:13:35;;;;;;;4.60;4.20;;;589.40;1510.40;;;;;;4847799;29;20077;-85
2021/05/28 05:16:00;;;;;;;7.13;4.80;;;589.40;1536.00;;;;;;4847251;29;20570;-86
2021/05/28 05:18:26;;;;;;;6.20;4.63;;;589.40;1510.40;;;;;;4847391;29;20112;-85
2021/05/28 05:20:53;;;;;;;9.10;5.88;;;589.40;1510.40;;;;;;4847255;29;20043;-86
2021/05/28 05:23:19;;;;;;;6.72;5.28;;;589.40;1510.40;;;;;;4863859;29;20037;-86
2021/05/28 05:25:46;;;;;;;5.30;4.80;;;589.40;1510.40;;;;;;4847454;29;20033;-85
2021/05/28 05:28:12;;;;;;;11.27;4.55;;;589.40;1510.40;;;;;;4847530;29;20479;-85
2021/05/28 05:30:38;;;;;;;5.07;4.57;;;589.40;1510.40;;;;;;4847400;29;20065;-86
2021/05/28 05:33:05;;;;;;;4.68;3.97;;;589.40;1510.40;;;;;;4847288;29;20049;-86
2021/05/28 05:35:30;;;;;;;7.75;4.63;;;589.40;1510.40;;;;;;4847390;29;20038;-87
2021/05/28 05:37:56;;;;;;;5.45;3.90;;;589.40;1510.40;;;;;;4847017;29;20044;-86
2021/05/28 05:40:22;;;;;;;4.80;4.30;;;589.40;1510.40;;;;;;4846628;29;20073;-86
2021/05/28 05:42:48;;;;;;;6.30;4.18;;;589.40;1510.40;;;;;;4847308;29;20138;-86
2021/05/28 05:45:15;;;;;;;5.13;4.05;;;589.30;1510.40;;;;;;4848195;29;20046;-85
2021/05/28 05:47:42;;;;;;;6.20;4.28;;;589.30;1510.40;;;;;;4847845;29;20049;-85
2021/05/28 05:50:09;;;;;;;7.18;4.22;;;589.40;1510.40;;;;;;4847205;29;20390;-85
2021/05/28 05:52:34;;;;;;;6.78;4.00;;;589.20;1510.40;;;;;;4847161;29;20057;-85
2021/05/28 05:55:00;;;;;;;6.28;4.13;;;589.30;1510.40;;;;;;4848768;29;20038;-88
2021/05/28 05:57:26;;;;;;;4.65;3.85;;;589.20;1510.40;;;;;;4848515;29;20500;-85
2021/05/28 05:59:52;;;;;;;6.22;4.18;;;589.20;1510.40;;;;;;4847538;29;20033;-86
2021/05/28 06:02:17;;;;;;;8.63;3.33;;;589.20;1510.40;;;;;;4847060;29;20042;-86
2021/05/28 06:04:43;;;;;;;6.65;4.35;;;589.20;1510.40;;;;;;4846859;29;20133;-85
2021/05/28 06:07:12;;;;;;;4.72;3.63;;;589.20;1510.40;;;;;;4847107;29;20036;-85
2021/05/28 06:09:53;;;;;;;3.50;2.97;;;589.20;1510.40;;;;;;4847053;29;20520;-85
2021/05/28 06:12:18;;;;;;;3.75;3.08;;;589.20;1510.40;;;;;;4847494;29;20517;-85
2021/05/28 06:14:44;;;;;;;5.63;4.13;;;589.20;1510.40;;;;;;4858501;29;20041;-86
2021/05/28 06:17:10;;;;;;;4.45;3.90;;;589.20;1510.40;;;;;;4864781;29;20033;-87
2021/05/28 06:19:36;;;;;;;3.67;3.35;;;589.20;1510.40;;;;;;4865373;29;20045;-86
2021/05/28 06:22:01;;;;;;;3.88;3.47;;;589.20;1510.40;;;;;;4865196;29;20049;-85
2021/05/28 06:24:27;;;;;;;4.93;3.30;;;589.20;1510.40;;;;;;4844177;29;20045;-86
2021/05/28 06:26:53;;;;;;;4.60;3.20;;;589.20;1510.40;;;;;;4836664;29;20487;-86
2021/05/28 06:29:18;;;;;;;3.95;3.60;;;589.20;1510.40;;;;;;4839465;29;20044;-86
2021/05/28 06:31:45;;;;;;;4.53;3.13;;;589.20;1510.40;;;;;;4856891;29;20128;-84
2021/05/28 06:34:11;;;;;;;4.47;4.07;;;589.20;1510.40;;;;;;4835350;29;20037;-85
2021/05/28 06:36:36;;;;;;;3.28;2.97;;;589.20;1510.40;;;;;;4837028;29;20081;-84
2021/05/28 06:39:04;;;;;;;4.63;3.47;;;589.20;1510.40;;;;;;4839308;29;20053;-84
2021/05/28 06:41:30;;;;;;;3.17;2.88;;;589.30;1510.40;;;;;;4843501;29;20175;-84
2021/05/28 06:44:06;;;;;;;4.13;3.50;;;589.30;1510.40;;;;;;4847575;29;20078;-84
2021/05/28 06:46:32;;;;;;;5.10;3.47;;;589.50;1510.40;;;;;;4972203;24;20502;-82
2021/05/28 06:48:58;;;;;;;5.35;3.00;;;589.40;1510.40;;;;;;4883604;29;20084;-83
2021/05/28 06:51:24;;;;;;;5.40;3.15;;;589.40;1510.40;;;;;;4881415;29;20412;-82
2021/05/28 06:53:51;;;;;;;3.60;3.30;;;589.50;1484.80;;;;;;4873530;29;20048;-83
2021/05/28 06:56:16;;;;;;;4.55;3.13;;;589.50;1484.80;;;;;;4870983;29;20062;-83
2021/05/28 06:58:47;;;;;;;4.00;3.10;;;589.50;1484.80;;;;;;4884269;29;20044;-82
2021/05/28 07:01:13;;;;;;;4.32;3.15;;;589.50;1484.80;;;;;;4884181;29;20044;-84
2021/05/28 07:03:39;;;;;;;4.32;3.33;;;589.50;1484.80;;;;;;4882320;29;20036;-82
2021/05/28 07:06:05;;;;;;;4.32;2.83;;;589.60;1484.80;;;;;;4882185;29;20047;-83
2021/05/28 07:08:32;;;;;;;4.03;3.63;;;589.60;1484.80;;;;;;4876111;29;20048;-83
2021/05/28 07:10:57;;;;;;;5.72;3.33;;;589.60;1484.80;;;;;;4873912;29;20044;-83
2021/05/28 07:13:26;;;;;;;4.97;3.28;;;589.60;1484.80;;;;;;4874369;29;20049;-82
2021/05/28 07:15:58;;;;;;;3.60;3.03;;;589.60;1459.20;;;;;;4882798;29;20044;-82
2021/05/28 07:18:24;;;;;;;3.97;3.25;;;589.60;1484.80;;;;;;4899945;29;20400;-83
2021/05/28 07:20:50;;;;;;;3.20;2.88;;;589.60;1484.80;;;;;;4898366;29;20036;-83
2021/05/28 07:23:19;;;;;;;2.42;2.05;;;589.60;1484.80;;;;;;4899799;29;20037;-80
2021/05/28 07:25:46;;;;;;;3.35;2.58;;;588.80;1484.80;;;;;;4881550;29;20366;-79
2021/05/28 07:28:11;;;;;;;3.55;3.22;;;538.00;1510.40;;;;;;4898199;29;20050;-80
2021/05/28 07:30:37;;;;;;;2.35;1.98;;;512.70;1587.20;;;;;;4881458;29;20455;-81
2021/05/28 07:33:03;;;;;;;3.05;1.90;;;512.10;1638.40;;;;;;4897105;29;20044;-80
2021/05/28 07:35:29;;;;;;;3.13;2.10;;;512.10;1664.00;;;;;;4881699;29;20037;-81
2021/05/28 07:37:55;;;;;;;3.45;1.98;;;487.10;1689.60;;;;;;4881481;29;20059;-81
2021/05/28 07:40:21;;;;;;;3.95;2.20;;;486.60;1740.80;;;;;;4881851;29;20107;-84
2021/05/28 07:42:48;;;;;;;3.42;1.70;;;486.60;1792.00;;;;;;4872305;29;20041;-84
2021/05/28 07:45:14;;;;;;;4.13;2.35;;;486.40;1792.00;;;;;;4880997;29;20120;-81
2021/05/28 07:47:41;;;;;;;2.47;1.77;;;486.60;1766.40;;;;;;4881753;29;20044;-84
2021/05/28 07:50:08;;;;;;;5.15;2.38;;;461.10;1843.20;;;;;;4883419;29;20092;-83
2021/05/28 07:52:34;;;;;;;4.82;2.33;;;461.10;1868.80;;;;;;4884401;29;20044;-83
2021/05/28 07:54:59;;;;;;;3.10;2.60;;;461.30;1843.20;;;;;;4881947;29;20036;-82
2021/05/28 07:57:25;;;;;;;2.83;1.83;;;460.90;1894.40;;;;;;4881806;29;20489;-80
2021/05/28 07:59:51;;;;;;;4.35;2.30;;;435.80;1843.20;;;;;;4881650;29;20036;-82
2021/05/28 08:02:18;;;;;;;5.30;2.47;;;435.80;1894.40;;;;;;4881964;29;20033;-83
2021/05/28 08:04:45;;;;;;;3.47;2.28;;;435.80;1945.60;;;;;;4884344;29;20056;-82
2021/05/28 08:07:11;;;;;;;5.25;2.20;;;435.70;1945.60;;;;;;4884594;29;20033;-80
2021/05/28 08:09:37;;;;;;;3.58;2.25;;;435.50;1971.20;;;;;;4917670;29;20028;-82
2021/05/28 08:12:03;;;;;;;2.90;2.03;;;435.70;1945.60;;;;;;4903574;29;20036;-80
2021/05/28 08:14:29;;;;;;;3.15;2.10;;;435.70;1920.00;;;;;;4903211;29;20075;-83
2021/05/28 08:16:55;;;;;;;4.40;2.53;;;435.50;1843.20;;;;;;4891556;29;20068;-82
2021/05/28 08:19:21;;;;;;;6.18;3.17;;;435.90;1868.80;;;;;;4883943;29;20036;-82
2021/05/28 08:21:47;;;;;;;4.50;2.60;;;436.00;1843.20;;;;;;4879655;29;20127;-81
2021/05/28 08:24:12;;;;;;;3.67;2.72;;;461.00;1868.80;;;;;;4874323;29;20037;-82
2021/05/28 08:26:38;;;;;;;3.70;2.40;;;461.00;1843.20;;;;;;4884771;29;20032;-88
2021/05/28 08:29:05;;;;;;;5.45;3.80;;;461.00;1740.80;;;;;;4902583;29;20452;-87
2021/05/28 08:31:31;;;;;;;5.55;2.63;;;460.80;1792.00;;;;;;4884465;29;20081;-83
2021/05/28 08:33:58;;;;;;;7.53;3.03;;;461.00;1817.60;;;;;;4904913;29;20045;-85
2021/05/28 08:36:24;;;;;;;5.32;3.40;;;460.90;1817.60;;;;;;4886682;29;20039;-86
2021/05/28 08:39:10;;;;;;;4.18;3.30;;;461.20;1843.20;;;;;;4905073;29;20033;-86
2021/05/28 08:41:42;;;;;;;5.60;2.75;;;461.20;1817.60;;;;;;4896088;29;20493;-82
2021/05/28 08:44:10;;;;;;;4.85;3.10;;;461.50;1792.00;;;;;;4890912;29;20068;-82
2021/05/28 08:46:36;;;;;;;5.97;2.85;;;486.40;1740.80;;;;;;4885667;29;20461;-86
2021/05/28 08:49:02;;;;;;;3.72;2.28;;;486.80;1766.40;;;;;;4885866;29;20083;-83
2021/05/28 08:51:27;;;;;;;5.03;2.33;;;486.40;1664.00;;;;;;4869880;29;20069;-84
2021/05/28 08:53:53;;;;;;;3.47;2.72;;;486.90;1689.60;;;;;;4882952;29;20052;-85
2021/05/28 08:56:19;;;;;;;4.63;2.30;;;487.10;1638.40;;;;;;4875053;29;20082;-84
2021/05/28 08:58:45;;;;;;;3.60;2.25;;;512.10;1587.20;;;;;;4877324;29;20067;-92
2021/05/28 09:01:10;;;;;;;2.83;2.15;;;512.30;1587.20;;;;;;4884386;29;20033;-82
2021/05/28 09:03:37;;;;;;;4.70;2.65;;;512.90;1587.20;;;;;;4884457;29;20043;-87
2021/05/28 09:06:18;;;;;;;7.85;2.72;;;538.10;1561.60;;;;;;4884830;29;20040;-86
2021/05/28 09:08:43;;;;;;;4.60;2.13;;;538.40;1510.40;;;;;;4884115;29;20036;-85
2021/05/28 09:11:15;;;;;;;5.57;2.65;;;538.10;1459.20;;;;;;4882189;29;20104;-81
2021/05/28 09:13:51;;;;;;;5.55;2.15;;;538.20;1459.20;;;;;;4885545;29;20159;-82
2021/05/28 09:16:27;;;;;;;4.10;2.00;;;563.20;1433.60;;;;;;4887803;29;20096;-83
2021/05/28 09:18:56;;;;;;;7.43;2.28;;;538.50;1408.00;;;;;;4886930;29;20036;-85
2021/05/28 09:21:38;;;;;;;2.58;1.95;;;563.40;1433.60;;;;;;4887416;29;20060;-85
2021/05/28 09:24:24;;;;;;;2.60;1.75;;;563.70;1433.60;;;;;;4881494;29;20109;-85
2021/05/28 09:27:00;;;;;;;4.22;2.30;;;563.70;1433.60;;;;;;4871054;29;20049;-86
2021/05/28 09:29:26;;;;;;;2.08;1.83;;;563.60;1408.00;;;;;;4869907;29;20040;-88
2021/05/28 09:31:51;;;;;;;5.15;1.90;;;538.30;1408.00;;;;;;4876491;29;20040;-85
2021/05/28 09:34:28;;;;;;;7.47;2.30;;;538.00;1408.00;;;;;;4885151;29;20044;-85
2021/05/28 09:36:53;;;;;;;2.40;1.60;;;512.80;1408.00;;;;;;4885500;29;20045;-85
2021/05/28 09:39:19;;;;;;;7.78;2.10;;;512.40;1433.60;;;;;;4885175;29;20132;-82
2021/05/28 09:41:57;;;;;;;2.33;1.50;;;537.70;1484.80;;;;;;4886258;29;20127;-84
2021/05/28 09:44:24;;;;;;;2.25;1.33;;;538.30;1408.00;;;;;;4885660;29;20036;-82
2021/05/28 09:47:18;;;;;;;3.03;2.15;;;538.10;1356.80;;;;;;4885024;29;20462;-83
2021/05/28 09:49:49;;;;;;;3.38;1.75;;;538.30;1382.40;;;;;;4885653;29;20045;-81
2021/05/28 09:52:20;;;;;;;3.00;1.42;;;538.50;1356.80;;;;;;4886104;29;20527;-86
2021/05/28 09:55:01;;;;;;;3.08;1.33;;;538.50;1331.20;;;;;;4887178;29;20069;-82
2021/05/28 09:57:32;;;;;;;5.45;1.90;;;538.30;1382.40;;;;;;4890375;29;20037;-84
2021/05/28 09:59:58;;;;;;;3.15;1.70;;;538.10;1408.00;;;;;;4887879;29;20408;-82
2021/05/28 10:02:28;;;;;;;2.78;1.77;;;538.50;1408.00;;;;;;4904147;29;20041;-88
2021/05/28 10:04:58;;;;;;;2.78;1.70;;;563.80;1356.80;;;;;;4886918;29;20041;-86
2021/05/28 10:07:26;;;;;;;3.53;1.65;;;563.80;1331.20;;;;;;4887082;29;20131;-82
2021/05/28 10:09:53;;;;;;;1.73;1.60;;;589.10;1254.40;;;;;;4889785;29;20093;-82
2021/05/28 10:12:20;;;;;;;1.80;1.60;;;614.80;1228.80;;;;;;4889444;29;20063;-82
2021/05/28 10:14:46;;;;;;;2.30;1.60;;;614.80;1152.00;;;;;;4891159;29;20576;-82
2021/05/28 10:17:13;;;;;;;2.88;1.70;;;615.00;1177.60;;;;;;4907955;29;20120;-82
2021/05/28 10:19:41;;;;;;;3.80;2.10;;;640.50;1152.00;;;;;;4892087;29;20043;-82
2021/05/28 10:22:07;;;;;;;4.00;2.10;;;666.50;1100.80;;;;;;4875872;29;20568;-82
2021/05/28 10:24:33;;;;;;;3.22;1.73;;;717.20;1049.60;;;;;;4873099;29;20078;-82
2021/05/28 10:26:59;;;;;;;5.57;2.38;;;717.20;998.40;;;;;;4883977;29;20473;-84
2021/05/28 10:29:26;;;;;;;2.47;1.95;;;717.30;1024.00;;;;;;4885158;29;20050;-86
2021/05/28 10:32:02;;;;;;;3.05;1.95;;;640.90;1075.20;;;;;;4888099;29;20117;-84
2021/05/28 10:34:30;;;;;;;2.42;1.60;;;640.50;1126.40;;;;;;4900877;29;20032;-83
2021/05/28 10:36:58;;;;;;;2.20;2.00;;;640.20;1100.80;;;;;;4883628;29;20060;-91
2021/05/28 10:39:25;;;;;;;1.85;1.65;;;691.30;1075.20;;;;;;4883775;29;20045;-83
2021/05/28 10:41:55;;;;;;;3.70;2.20;;;665.70;1126.40;;;;;;4883878;29;20361;-84
2021/05/28 10:44:26;;;;;;;6.30;2.70;;;640.40;1152.00;;;;;;4883409;29;20081;-83
2021/05/28 10:47:18;;;;;;;3.40;2.33;;;640.10;1177.60;;;;;;4883493;29;20048;-83
2021/05/28 10:49:52;;;;;;;6.20;4.18;;;614.60;1228.80;;;;;;4885186;29;20047;-87
2021/05/28 10:52:29;;;;;;;4.57;3.95;;;589.70;1331.20;;;;;;4884696;29;20067;-83
2021/05/28 10:55:01;;;;;;;4.80;4.18;;;589.10;1356.80;;;;;;4883318;29;20097;-88
2021/05/28 10:57:27;;;;;;;;;;;589.20;1356.80;;;;;;4883202;29;20405;-83
2021/05/28 10:59:56;;;;;;;6.45;5.13;;;589.20;1382.40;;;;;;4900627;29;19924;-83
2021/05/28 11:02:48;;;;;;;5.20;4.10;;;589.00;1408.00;;;;;;4882443;29;20040;-91
2021/05/28 11:05:38;;;;;;;6.43;5.20;;;615.10;1280.00;;;;;;4886158;29;20036;-87
2021/05/28 11:08:56;;;;;;;8.07;4.97;;;743.10;1049.60;;;;;;4907080;29;20068;-85
2021/05/28 11:11:48;;;;;;;4.55;4.10;;;793.60;998.40;;;;;;4842935;29;20102;-84
2021/05/28 11:14:17;;;;;;;4.90;4.07;;;794.50;921.60;;;;;;4826598;29;20038;-88
2021/05/28 11:16:52;;;;;;;4.75;3.83;;;819.60;896.00;;;;;;4827865;29;20415;-85
2021/05/28 11:19:34;;;;;;;4.15;3.83;;;845.70;819.20;;;;;;4845986;29;20123;-89
2021/05/28 11:22:08;;;;;;;3.58;3.28;;;820.00;870.40;;;;;;4832452;29;20125;-94
2021/05/28 11:24:51;;;;;;;4.78;3.70;;;819.50;896.00;;;;;;4840336;29;20053;-91
2021/05/28 11:27:23;;;;;;;7.22;4.32;;;819.90;870.40;;;;;;4848594;29;20069;-84
2021/05/28 11:30:04;;;;;;;3.60;3.30;;;870.80;819.20;;;;;;4845033;29;20069;-83
2021/05/28 11:32:45;;;;;;;4.68;3.63;;;845.70;844.80;;;;;;4848859;29;20140;-83
2021/05/28 11:35:16;;;;;;;3.67;3.30;;;845.30;844.80;;;;;;4849603;29;20105;-84
2021/05/28 11:37:48;;;;;;;3.65;3.25;;;844.80;870.40;;;;;;4843003;29;20105;-83
2021/05/28 11:40:18;;;;;;;4.85;3.95;;;768.10;972.80;;;;;;4829393;29;20038;-83
2021/05/28 11:42:44;;;;;;;4.20;3.58;;;819.20;896.00;;;;;;4849600;29;20034;-89
2021/05/28 11:45:12;;;;;;;3.80;3.50;;;793.70;921.60;;;;;;4835519;29;20086;-92
2021/05/28 11:47:39;;;;;;;3.55;3.25;;;794.40;896.00;;;;;;4861590;29;20056;-87
2021/05/28 11:50:12;;;;;;;4.30;3.40;;;845.20;844.80;;;;;;4890637;29;20040;-82
2021/05/28 11:52:41;;;;;;;3.83;3.35;;;871.10;793.60;;;;;;4889044;29;20397;-82
2021/05/28 11:55:15;;;;;;;3.47;2.60;;;871.10;793.60;;;;;;4875813;29;20069;-84
2021/05/28 11:58:04;;;;;;;4.05;2.78;;;819.50;844.80;;;;;;4865096;29;20034;-84
2021/05/28 12:00:31;;;;;;;5.93;3.20;;;717.70;998.40;;;;;;4885276;29;20048;-86
2021/05/28 12:03:08;;;;;;;4.53;3.13;;;665.70;1152.00;;;;;;4884523;29;20037;-91
2021/05/28 12:05:39;;;;;;;4.32;3.40;;;614.50;1254.40;;;;;;4882888;29;20072;-90
2021/05/28 12:08:31;;;;;;;4.35;2.97;;;589.30;1305.60;;;;;;4906878;29;20036;-91
2021/05/28 12:11:01;;;;;;;4.05;3.40;;;588.90;1356.80;;;;;;4885127;29;20040;-92
2021/05/28 12:13:43;;;;;;;2.97;2.67;;;640.70;1152.00;;;;;;4883908;29;20071;-92
2021/05/28 12:16:11;;;;;;;4.47;2.78;;;614.80;1254.40;;;;;;4867356;29;20033;-92
2021/05/28 12:18:43;;;;;;;5.05;3.15;;;589.40;1305.60;;;;;;4855137;29;20042;-88
2021/05/28 12:21:12;;;;;;;4.25;3.20;;;589.20;1331.20;;;;;;4857835;29;20105;-88
2021/05/28 12:23:43;;;;;;;4.75;2.42;;;640.90;1177.60;;;;;;4851344;29;20053;-88
2021/05/28 12:26:10;;;;;;;3.22;2.72;;;640.20;1203.20;;;;;;4842552;29;20074;-84
2021/05/28 12:28:38;;;;;;;3.67;2.92;;;589.70;1305.60;;;;;;4846019;29;20041;-84
2021/05/28 12:31:13;;;;;;;4.15;3.75;;;563.70;1382.40;;;;;;4851560;29;20041;-83